Time;durP1;ratioP1;P1;durP2;ratioP2;P2;SDS_P1;SDS_P2;PMS_P1;PMS_P2;Temp;Humidity;BMP_temperature;BMP_pressure;BME280_temperature;BME280_humidity;BME280_pressure;Samples;Min_cycle;Max_cycle;Signal;HPM_P1;HPM_P2
2021/11/14 00:02:15;;;;;;;17.15;13.45;;;13.30;99.90;;;;;;6208976;23;20008;-78
2021/11/14 00:04:46;;;;;;;18.92;13.55;;;13.30;99.90;;;;;;6210766;23;20335;-78
2021/11/14 00:07:13;;;;;;;17.00;12.38;;;13.30;99.90;;;;;;6210319;23;20012;-78
2021/11/14 00:09:38;;;;;;;15.88;12.90;;;13.30;99.90;;;;;;6210115;23;20336;-78
2021/11/14 00:12:05;;;;;;;19.85;12.50;;;13.40;99.90;;;;;;6209944;23;20005;-78
2021/11/14 00:14:30;;;;;;;16.63;13.00;;;13.30;99.90;;;;;;6209886;23;20009;-79
2021/11/14 00:16:57;;;;;;;18.65;12.95;;;13.30;99.90;;;;;;6208197;23;20466;-79
2021/11/14 00:19:23;;;;;;;17.30;13.05;;;13.30;99.90;;;;;;6208895;23;20019;-79
2021/11/14 00:21:49;;;;;;;19.08;13.55;;;13.30;99.90;;;;;;6209915;22;20280;-78
2021/11/14 00:24:15;;;;;;;15.63;12.75;;;13.30;99.90;;;;;;6210060;23;20020;-79
2021/11/14 00:26:43;;;;;;;17.60;13.00;;;13.20;99.90;;;;;;6210641;23;20008;-78
2021/11/14 00:29:10;;;;;;;18.35;13.10;;;13.20;99.90;;;;;;6213044;23;20424;-79
2021/11/14 00:31:36;;;;;;;16.10;12.32;;;13.20;99.90;;;;;;6212831;23;20003;-78
2021/11/14 00:34:05;;;;;;;19.65;12.55;;;13.20;99.90;;;;;;6212988;23;20043;-78
2021/11/14 00:36:42;;;;;;;15.23;12.02;;;13.20;99.90;;;;;;6212584;23;19996;-78
2021/11/14 00:39:16;;;;;;;12.63;11.20;;;13.10;99.90;;;;;;6213271;23;20087;-78
2021/11/14 00:41:43;;;;;;;16.27;10.68;;;13.10;99.90;;;;;;6212526;23;20001;-79
2021/11/14 00:44:09;;;;;;;16.70;10.95;;;13.10;99.90;;;;;;6212906;23;20011;-79
2021/11/14 00:46:35;;;;;;;15.48;11.30;;;13.10;99.90;;;;;;6211215;23;20320;-79
2021/11/14 00:49:01;;;;;;;15.07;10.80;;;13.00;99.90;;;;;;6211358;23;20108;-78
2021/11/14 00:51:30;;;;;;;13.55;10.98;;;13.00;99.90;;;;;;6212698;23;20075;-78
2021/11/14 00:54:03;;;;;;;13.10;10.23;;;12.90;99.90;;;;;;6213072;22;20001;-79
2021/11/14 00:56:29;;;;;;;12.15;10.45;;;12.90;99.90;;;;;;6211316;23;20043;-78
2021/11/14 00:58:56;;;;;;;12.55;10.25;;;12.80;99.90;;;;;;6211241;23;20009;-78
2021/11/14 01:01:22;;;;;;;14.52;10.30;;;12.80;99.90;;;;;;6210986;23;20027;-79
2021/11/14 01:03:49;;;;;;;14.70;11.20;;;12.70;99.90;;;;;;6213189;22;20000;-78
2021/11/14 01:06:15;;;;;;;12.73;10.40;;;12.70;99.90;;;;;;6212665;23;19993;-79
2021/11/14 01:08:41;;;;;;;12.95;10.38;;;12.60;99.90;;;;;;6213186;23;20008;-78
2021/11/14 01:11:09;;;;;;;11.70;10.45;;;12.50;99.90;;;;;;6212738;23;20001;-78
2021/11/14 01:13:35;;;;;;;14.57;10.23;;;12.60;99.90;;;;;;6211291;23;20093;-78
2021/11/14 01:16:03;;;;;;;11.90;10.60;;;12.60;99.90;;;;;;6212329;23;20001;-78
2021/11/14 01:18:29;;;;;;;11.98;9.98;;;12.50;99.90;;;;;;6213147;23;20009;-79
2021/11/14 01:20:58;;;;;;;13.63;9.48;;;12.50;99.90;;;;;;6212689;23;20012;-78
2021/11/14 01:23:25;;;;;;;12.48;9.60;;;12.40;99.90;;;;;;6213561;23;20012;-78
2021/11/14 01:25:52;;;;;;;12.48;10.25;;;12.40;99.90;;;;;;6212522;23;20008;-78
2021/11/14 01:28:18;;;;;;;11.85;9.30;;;12.40;99.90;;;;;;6213056;23;20332;-78
2021/11/14 01:30:47;;;;;;;13.60;10.05;;;12.50;99.90;;;;;;6212207;23;20432;-78
2021/11/14 01:33:14;;;;;;;12.05;9.07;;;12.50;99.90;;;;;;6214841;23;20096;-78
2021/11/14 01:35:41;;;;;;;11.52;10.00;;;12.50;99.90;;;;;;6212573;23;20005;-78
2021/11/14 01:38:08;;;;;;;11.98;9.18;;;12.50;99.90;;;;;;6213431;23;20038;-78
2021/11/14 01:40:42;;;;;;;10.68;9.23;;;12.50;99.90;;;;;;6214215;23;20008;-77
2021/11/14 01:43:10;;;;;;;11.18;8.65;;;12.50;99.90;;;;;;6213275;23;20007;-78
2021/11/14 01:45:37;;;;;;;12.23;8.73;;;12.50;99.90;;;;;;6214103;23;20001;-77
2021/11/14 01:48:04;;;;;;;10.90;9.27;;;12.60;99.90;;;;;;6215020;23;20317;-78
2021/11/14 01:50:31;;;;;;;12.85;9.15;;;12.70;99.90;;;;;;6213613;23;20027;-78
2021/11/14 01:52:57;;;;;;;11.55;9.05;;;12.80;99.90;;;;;;6212884;23;20008;-78
2021/11/14 01:55:26;;;;;;;11.13;8.43;;;12.80;99.90;;;;;;6213998;23;20001;-78
2021/11/14 01:57:53;;;;;;;8.90;8.00;;;12.90;99.90;;;;;;6213966;23;20008;-78
2021/11/14 02:00:30;;;;;;;8.93;7.90;;;13.00;99.90;;;;;;6211240;23;20001;-78
2021/11/14 02:02:56;;;;;;;8.40;7.50;;;13.10;99.90;;;;;;6214822;23;20035;-78
2021/11/14 02:05:23;;;;;;;9.30;7.63;;;13.10;99.90;;;;;;6213891;23;19997;-78
2021/11/14 02:08:00;;;;;;;10.13;7.47;;;13.20;99.90;;;;;;6214626;23;20005;-78
2021/11/14 02:10:29;;;;;;;8.27;7.47;;;13.30;99.90;;;;;;6212384;23;20427;-79
2021/11/14 02:12:56;;;;;;;11.52;7.78;;;13.40;99.90;;;;;;6214630;23;20009;-79
2021/11/14 02:15:22;;;;;;;8.10;7.30;;;13.50;99.90;;;;;;6212142;23;20493;-78
2021/11/14 02:17:48;;;;;;;12.57;7.35;;;13.50;99.90;;;;;;6214169;23;20032;-77
2021/11/14 02:20:16;;;;;;;8.38;7.22;;;13.60;99.90;;;;;;6212187;23;20013;-78
2021/11/14 02:22:42;;;;;;;10.35;7.63;;;13.70;99.90;;;;;;6214368;23;20004;-78
2021/11/14 02:25:10;;;;;;;8.50;7.60;;;13.70;99.90;;;;;;6213954;22;20440;-78
2021/11/14 02:27:37;;;;;;;9.05;7.20;;;13.70;99.90;;;;;;6212486;23;20364;-78
2021/11/14 02:30:08;;;;;;;8.02;7.15;;;13.80;99.90;;;;;;6209142;23;20013;-78
2021/11/14 02:32:34;;;;;;;12.30;7.70;;;13.80;99.90;;;;;;6213812;23;20039;-78
2021/11/14 02:35:00;;;;;;;9.05;7.50;;;13.80;99.90;;;;;;6213066;23;20004;-78
2021/11/14 02:37:26;;;;;;;7.95;7.10;;;13.80;99.90;;;;;;6213911;23;20012;-78
2021/11/14 02:39:51;;;;;;;9.48;7.35;;;13.80;99.90;;;;;;6213028;23;20443;-77
2021/11/14 02:42:17;;;;;;;8.50;7.60;;;13.80;99.90;;;;;;6214346;23;20055;-77
2021/11/14 02:44:43;;;;;;;8.15;7.35;;;13.80;99.90;;;;;;6213674;23;20000;-78
2021/11/14 02:47:09;;;;;;;9.70;7.40;;;13.80;99.90;;;;;;6213878;23;19996;-78
2021/11/14 02:49:35;;;;;;;8.68;7.78;;;13.80;99.90;;;;;;6213781;23;20066;-78
2021/11/14 02:52:01;;;;;;;9.13;7.35;;;13.70;99.90;;;;;;6213892;23;20432;-78
2021/11/14 02:54:27;;;;;;;8.88;7.97;;;13.80;99.90;;;;;;6214095;23;20001;-78
2021/11/14 02:56:52;;;;;;;9.05;7.40;;;13.80;99.90;;;;;;6211901;23;20012;-78
2021/11/14 02:59:18;;;;;;;8.23;7.28;;;13.80;99.90;;;;;;6213923;23;20004;-78
2021/11/14 03:01:48;;;;;;;9.45;7.65;;;13.80;99.90;;;;;;6211876;23;19997;-78
2021/11/14 03:04:20;;;;;;;10.88;7.80;;;13.80;99.90;;;;;;6213964;23;20103;-78
2021/11/14 03:06:49;;;;;;;9.20;8.23;;;13.70;99.90;;;;;;6212222;23;20015;-78
2021/11/14 03:09:15;;;;;;;8.15;7.35;;;13.70;99.90;;;;;;6214133;22;19997;-78
2021/11/14 03:11:41;;;;;;;8.95;7.68;;;13.70;99.90;;;;;;6213582;23;20008;-78
2021/11/14 03:14:08;;;;;;;11.02;7.78;;;13.70;99.90;;;;;;6213680;23;20008;-78
2021/11/14 03:16:34;;;;;;;8.20;7.30;;;13.80;99.90;;;;;;6213320;23;20004;-78
2021/11/14 03:19:00;;;;;;;8.10;7.30;;;13.80;99.90;;;;;;6213947;23;20004;-78
2021/11/14 03:21:27;;;;;;;8.20;7.35;;;13.80;99.90;;;;;;6211997;23;20006;-78
2021/11/14 03:23:54;;;;;;;10.35;7.78;;;13.80;99.90;;;;;;6213670;23;20015;-79
2021/11/14 03:26:20;;;;;;;9.50;7.10;;;13.80;99.90;;;;;;6211821;23;20001;-78
2021/11/14 03:28:46;;;;;;;9.15;8.27;;;13.80;99.90;;;;;;6211760;23;20004;-78
2021/11/14 03:31:12;;;;;;;9.95;7.40;;;13.80;99.90;;;;;;6211460;23;20143;-79
2021/11/14 03:33:39;;;;;;;8.98;8.05;;;13.80;99.90;;;;;;6212411;23;19989;-77
2021/11/14 03:36:09;;;;;;;8.35;7.03;;;13.80;99.90;;;;;;6211842;23;20399;-77
2021/11/14 03:38:46;;;;;;;12.85;7.13;;;13.80;99.90;;;;;;6212325;23;20017;-77
2021/11/14 03:41:17;;;;;;;7.60;6.90;;;13.80;99.90;;;;;;6213081;23;19999;-78
2021/11/14 03:43:43;;;;;;;8.57;7.78;;;13.80;99.90;;;;;;6211614;23;20015;-78
2021/11/14 03:46:09;;;;;;;7.72;6.93;;;13.80;99.90;;;;;;6211122;23;20035;-78
2021/11/14 03:48:37;;;;;;;10.80;7.93;;;13.70;99.90;;;;;;6213374;23;19997;-77
2021/11/14 03:51:04;;;;;;;8.55;7.13;;;13.70;99.90;;;;;;6211422;23;20043;-78
2021/11/14 03:53:30;;;;;;;9.73;7.28;;;13.70;99.90;;;;;;6212253;23;20022;-78
2021/11/14 03:55:56;;;;;;;7.65;6.63;;;13.70;99.90;;;;;;6212999;23;20348;-76
2021/11/14 03:58:22;;;;;;;8.32;7.40;;;13.60;99.90;;;;;;6211868;23;20024;-78
2021/11/14 04:00:52;;;;;;;8.00;6.85;;;13.60;99.90;;;;;;6211182;23;20005;-78
2021/11/14 04:03:17;;;;;;;8.73;7.38;;;13.60;99.90;;;;;;6213501;23;20004;-78
2021/11/14 04:05:44;;;;;;;9.77;7.50;;;13.60;99.90;;;;;;6210554;23;20432;-78
2021/11/14 04:08:15;;;;;;;7.05;6.35;;;13.60;99.90;;;;;;6212918;23;20005;-78
2021/11/14 04:10:43;;;;;;;9.40;7.85;;;13.60;99.90;;;;;;6211036;23;20008;-78
2021/11/14 04:13:09;;;;;;;10.40;7.25;;;13.60;99.90;;;;;;6213313;23;20011;-77
2021/11/14 04:15:36;;;;;;;8.80;7.53;;;13.60;99.90;;;;;;6212608;23;20027;-78
2021/11/14 04:18:02;;;;;;;11.80;7.50;;;13.60;99.90;;;;;;6211724;23;20343;-77
2021/11/14 04:20:30;;;;;;;8.38;7.18;;;13.60;99.90;;;;;;6212906;23;19997;-78
2021/11/14 04:22:57;;;;;;;10.25;6.75;;;13.70;99.90;;;;;;6211936;23;20005;-78
2021/11/14 04:25:23;;;;;;;7.40;6.63;;;13.60;99.90;;;;;;6212760;23;20004;-78
2021/11/14 04:27:49;;;;;;;10.23;6.88;;;13.70;99.90;;;;;;6213229;23;20004;-78
2021/11/14 04:30:16;;;;;;;8.90;6.18;;;13.60;99.90;;;;;;6212606;23;20000;-78
2021/11/14 04:32:43;;;;;;;6.97;6.18;;;13.60;99.90;;;;;;6213056;23;20024;-78
2021/11/14 04:35:09;;;;;;;7.38;6.47;;;13.70;99.90;;;;;;6211164;23;20078;-78
2021/11/14 04:37:36;;;;;;;7.55;6.85;;;13.70;99.90;;;;;;6213432;23;20012;-78
2021/11/14 04:40:03;;;;;;;8.07;7.20;;;13.70;99.90;;;;;;6211190;23;20005;-78
2021/11/14 04:42:28;;;;;;;8.75;6.82;;;13.70;99.90;;;;;;6213265;23;20004;-78
2021/11/14 04:44:55;;;;;;;10.35;7.13;;;13.70;99.90;;;;;;6210963;23;20442;-78
2021/11/14 04:47:20;;;;;;;8.60;6.70;;;13.60;99.90;;;;;;6213015;23;20035;-78
2021/11/14 04:49:46;;;;;;;7.53;6.82;;;13.60;99.90;;;;;;6211235;23;20463;-78
2021/11/14 04:52:12;;;;;;;7.50;6.72;;;13.60;99.90;;;;;;6212957;23;20461;-78
2021/11/14 04:54:37;;;;;;;7.78;6.95;;;13.60;99.90;;;;;;6214636;23;20000;-78
2021/11/14 04:57:04;;;;;;;7.65;6.82;;;13.60;99.90;;;;;;6213322;23;20012;-77
2021/11/14 04:59:29;;;;;;;8.48;7.38;;;13.60;99.90;;;;;;6213117;23;20509;-78
2021/11/14 05:01:55;;;;;;;8.77;6.93;;;13.60;99.90;;;;;;6214682;23;20031;-78
2021/11/14 05:04:21;;;;;;;9.45;7.30;;;13.60;99.90;;;;;;6215290;23;20123;-78
2021/11/14 05:06:46;;;;;;;7.93;7.13;;;13.60;99.90;;;;;;6214818;23;19997;-77
2021/11/14 05:09:12;;;;;;;8.35;6.93;;;13.60;99.90;;;;;;6215007;23;20015;-79
2021/11/14 05:11:38;;;;;;;7.93;6.88;;;13.70;99.90;;;;;;6214538;23;20001;-78
2021/11/14 05:14:04;;;;;;;8.15;7.13;;;13.60;99.90;;;;;;6215090;23;20331;-79
2021/11/14 05:16:29;;;;;;;8.45;6.75;;;13.70;99.90;;;;;;6213160;23;20001;-78
2021/11/14 05:18:55;;;;;;;7.18;6.45;;;13.60;99.90;;;;;;6215129;23;20028;-78
2021/11/14 05:21:21;;;;;;;11.93;7.10;;;13.60;99.90;;;;;;6214618;23;20007;-78
2021/11/14 05:23:47;;;;;;;8.02;7.22;;;13.70;99.90;;;;;;6213373;23;20691;-78
2021/11/14 05:26:13;;;;;;;8.25;7.10;;;13.60;99.90;;;;;;6214651;23;20001;-78
2021/11/14 05:28:40;;;;;;;8.50;7.57;;;13.60;99.90;;;;;;6213279;23;20009;-78
2021/11/14 05:31:05;;;;;;;11.10;7.45;;;13.60;99.90;;;;;;6212765;23;20001;-78
2021/11/14 05:33:31;;;;;;;7.93;7.22;;;13.60;99.90;;;;;;6214959;23;20004;-78
2021/11/14 05:35:57;;;;;;;8.60;7.25;;;13.50;99.90;;;;;;6212522;23;20008;-78
2021/11/14 05:38:23;;;;;;;8.18;7.38;;;13.50;99.90;;;;;;6214235;23;20008;-78
2021/11/14 05:40:49;;;;;;;9.85;7.75;;;13.40;99.90;;;;;;6213970;23;20347;-78
2021/11/14 05:43:15;;;;;;;9.02;7.97;;;13.40;99.90;;;;;;6214992;23;20424;-79
2021/11/14 05:45:41;;;;;;;9.05;7.40;;;13.40;99.90;;;;;;6212002;23;20043;-78
2021/11/14 05:48:08;;;;;;;11.05;7.47;;;13.30;99.90;;;;;;6212708;23;20015;-77
2021/11/14 05:50:35;;;;;;;9.80;7.07;;;13.30;99.90;;;;;;6213251;23;20123;-77
2021/11/14 05:53:00;;;;;;;7.68;6.88;;;13.20;99.90;;;;;;6214730;23;20010;-77
2021/11/14 05:55:27;;;;;;;7.95;7.15;;;13.20;99.90;;;;;;6214159;23;19996;-77
2021/11/14 06:05:50;;;;;;;9.13;7.50;;;13.10;99.90;;;;;;6216852;23;20009;-78
2021/11/14 06:08:20;;;;;;;8.45;7.43;;;12.90;99.90;;;;;;6214765;23;20005;-78
2021/11/14 06:10:48;;;;;;;11.82;7.50;;;12.90;99.90;;;;;;6212365;23;20035;-78
2021/11/14 06:13:14;;;;;;;8.93;7.30;;;12.80;99.90;;;;;;6214487;23;20332;-78
2021/11/14 06:15:40;;;;;;;7.88;7.05;;;12.80;99.90;;;;;;6213617;23;20004;-78
2021/11/14 06:18:05;;;;;;;10.82;7.72;;;12.80;99.90;;;;;;6212918;23;20039;-78
2021/11/14 06:20:31;;;;;;;9.50;7.15;;;12.80;99.90;;;;;;6212145;23;20028;-78
2021/11/14 06:22:57;;;;;;;8.75;7.32;;;12.70;99.90;;;;;;6212531;23;20024;-78
2021/11/14 06:25:23;;;;;;;8.02;6.90;;;12.80;99.90;;;;;;6211907;23;20001;-78
2021/11/14 06:27:49;;;;;;;8.50;7.20;;;12.80;99.90;;;;;;6214004;23;20008;-78
2021/11/14 06:30:15;;;;;;;10.25;7.07;;;12.80;99.90;;;;;;6213885;23;20011;-84
2021/11/14 06:32:41;;;;;;;9.32;7.43;;;12.80;99.90;;;;;;6212799;23;20376;-79
2021/11/14 06:35:08;;;;;;;11.00;7.38;;;12.90;99.90;;;;;;6214011;23;20004;-79
2021/11/14 06:37:34;;;;;;;10.63;7.07;;;12.90;99.90;;;;;;6214431;23;20055;-78
2021/11/14 06:40:00;;;;;;;7.10;6.40;;;13.00;99.90;;;;;;6212128;23;20657;-78
2021/11/14 06:42:26;;;;;;;10.50;6.70;;;13.00;99.90;;;;;;6213055;23;20046;-82
2021/11/14 06:44:51;;;;;;;9.63;6.97;;;13.10;99.90;;;;;;6224588;23;19997;-77
2021/11/14 06:47:17;;;;;;;8.93;6.75;;;13.10;99.90;;;;;;6214301;23;20031;-77
2021/11/14 06:49:44;;;;;;;8.07;6.07;;;13.20;99.90;;;;;;6212997;23;20032;-78
2021/11/14 06:52:11;;;;;;;9.50;6.82;;;13.20;99.90;;;;;;6211516;23;20047;-78
2021/11/14 06:54:36;;;;;;;9.75;7.25;;;13.20;99.90;;;;;;6211470;23;20415;-76
2021/11/14 06:57:02;;;;;;;9.52;7.10;;;13.20;99.90;;;;;;6212602;23;20005;-77
2021/11/14 06:59:28;;;;;;;13.93;10.93;;;13.20;99.90;;;;;;6211901;23;20001;-77
2021/11/14 07:01:54;;;;;;;18.52;11.95;;;13.30;99.90;;;;;;6211630;23;20001;-78
2021/11/14 07:04:20;;;;;;;17.08;11.43;;;13.30;99.90;;;;;;6212887;23;20009;-78
2021/11/14 07:06:46;;;;;;;14.07;10.52;;;13.30;99.90;;;;;;6212167;23;20000;-79
2021/11/14 07:09:13;;;;;;;16.75;10.98;;;13.30;99.90;;;;;;6210726;23;20090;-79
2021/11/14 07:11:39;;;;;;;13.88;8.35;;;13.40;99.90;;;;;;6208319;23;20088;-79
2021/11/14 07:14:05;;;;;;;12.68;9.60;;;13.40;99.90;;;;;;6210693;23;20079;-78
2021/11/14 07:16:32;;;;;;;20.02;13.90;;;13.50;99.90;;;;;;6210423;23;20000;-79
2021/11/14 07:18:59;;;;;;;12.30;8.82;;;13.60;99.90;;;;;;6211325;23;20036;-78
2021/11/14 07:21:25;;;;;;;13.15;7.63;;;13.70;99.90;;;;;;6209789;23;20005;-78
2021/11/14 07:23:51;;;;;;;10.25;6.65;;;13.70;99.90;;;;;;6212307;22;20513;-79
2021/11/14 07:26:17;;;;;;;8.65;7.53;;;13.80;99.90;;;;;;6213454;23;20324;-78
2021/11/14 07:28:43;;;;;;;10.73;7.40;;;13.90;99.90;;;;;;6213522;23;19992;-78
2021/11/14 07:31:09;;;;;;;11.68;8.05;;;14.00;99.90;;;;;;6210824;23;20004;-79
2021/11/14 07:33:35;;;;;;;6.20;5.57;;;14.00;99.90;;;;;;6210508;23;20008;-78
2021/11/14 07:36:01;;;;;;;22.92;6.35;;;14.00;99.90;;;;;;6212315;23;20008;-79
2021/11/14 07:38:27;;;;;;;6.47;5.85;;;14.00;99.90;;;;;;6212315;23;20036;-79
2021/11/14 07:40:53;;;;;;;8.18;6.60;;;14.00;99.90;;;;;;6211641;23;20024;-79
2021/11/14 07:43:18;;;;;;;8.73;5.85;;;14.00;99.90;;;;;;6212823;23;20050;-79
2021/11/14 07:45:45;;;;;;;7.97;6.47;;;14.00;99.90;;;;;;6212471;23;20423;-80
2021/11/14 07:48:11;;;;;;;7.53;5.75;;;14.00;99.90;;;;;;6210591;23;20009;-81
2021/11/14 07:50:38;;;;;;;9.10;7.00;;;14.10;99.90;;;;;;6211332;23;20020;-82
2021/11/14 07:53:04;;;;;;;9.20;5.75;;;14.10;99.90;;;;;;6213773;23;19997;-81
2021/11/14 07:55:31;;;;;;;7.35;5.82;;;14.20;99.90;;;;;;6211415;23;20570;-79
2021/11/14 07:58:02;;;;;;;8.20;6.35;;;14.20;99.90;;;;;;6213206;23;20004;-80
2021/11/14 08:00:28;;;;;;;6.57;5.85;;;14.30;99.90;;;;;;6212676;23;20084;-80
2021/11/14 08:02:54;;;;;;;8.32;5.88;;;14.50;99.90;;;;;;6213504;23;20024;-80
2021/11/14 08:05:20;;;;;;;7.00;6.00;;;14.60;99.90;;;;;;6212711;23;20035;-80
2021/11/14 08:07:46;;;;;;;6.47;5.60;;;14.70;99.90;;;;;;6213209;23;20444;-80
2021/11/14 08:10:14;;;;;;;5.25;4.75;;;14.80;99.90;;;;;;6212537;23;19997;-80
2021/11/14 08:12:39;;;;;;;5.15;4.65;;;14.90;99.90;;;;;;6213264;23;20005;-81
2021/11/14 08:15:06;;;;;;;6.35;5.22;;;15.00;99.90;;;;;;6212551;23;20104;-81
2021/11/14 08:17:32;;;;;;;6.22;4.57;;;15.20;99.90;;;;;;6211769;23;20131;-82
2021/11/14 08:20:00;;;;;;;41.45;23.52;;;15.30;99.90;;;;;;6212538;23;20005;-81
2021/11/14 08:22:30;;;;;;;11.25;8.93;;;15.40;99.90;;;;;;6213656;23;20077;-80
2021/11/14 08:24:56;;;;;;;6.85;5.13;;;15.60;99.90;;;;;;6212760;23;20035;-83
2021/11/14 08:27:23;;;;;;;8.23;6.00;;;15.70;99.90;;;;;;6211106;23;20027;-84
2021/11/14 08:29:50;;;;;;;6.55;5.13;;;15.70;99.90;;;;;;6212942;23;20005;-80
2021/11/14 08:32:17;;;;;;;6.78;4.70;;;15.80;99.90;;;;;;6213953;23;20004;-84
2021/11/14 08:34:43;;;;;;;5.05;4.10;;;15.80;99.90;;;;;;6213670;23;20004;-82
2021/11/14 08:37:09;;;;;;;12.02;6.43;;;15.90;99.90;;;;;;6213765;23;20005;-83
2021/11/14 08:39:35;;;;;;;5.40;3.88;;;15.90;99.90;;;;;;6212617;23;20009;-86
2021/11/14 08:42:01;;;;;;;7.47;4.70;;;15.90;99.90;;;;;;6213267;23;20032;-84
2021/11/14 08:44:28;;;;;;;7.25;5.18;;;16.00;99.90;;;;;;6213388;23;20088;-83
2021/11/14 08:46:55;;;;;;;5.90;4.68;;;16.00;99.90;;;;;;6212844;23;20076;-81
2021/11/14 08:49:21;;;;;;;5.20;3.90;;;16.00;99.90;;;;;;6211613;23;20450;-82
2021/11/14 08:51:47;;;;;;;3.92;3.50;;;16.10;99.90;;;;;;6211279;23;20481;-82
2021/11/14 08:54:13;;;;;;;5.78;4.10;;;16.10;99.90;;;;;;6213812;23;20084;-84
2021/11/14 08:56:39;;;;;;;3.97;3.58;;;16.20;99.90;;;;;;6214097;23;20012;-82
2021/11/14 08:59:08;;;;;;;4.93;4.13;;;16.20;99.90;;;;;;6213895;23;20011;-86
2021/11/14 09:01:35;;;;;;;3.63;3.33;;;16.30;99.90;;;;;;6214437;23;19993;-86
2021/11/14 09:04:02;;;;;;;4.38;3.20;;;16.40;99.90;;;;;;6215637;23;20000;-84
2021/11/14 09:06:29;;;;;;;3.30;3.00;;;16.40;99.90;;;;;;6215552;23;20140;-84
2021/11/14 09:08:55;;;;;;;3.33;2.90;;;16.50;99.90;;;;;;6213767;23;20017;-85
2021/11/14 09:11:21;;;;;;;2.92;2.63;;;16.50;99.90;;;;;;6213725;23;20001;-85
2021/11/14 09:13:48;;;;;;;3.03;2.72;;;16.60;99.90;;;;;;6214249;23;20075;-84
2021/11/14 09:16:15;;;;;;;3.22;2.83;;;16.60;99.90;;;;;;6210935;23;20013;-84
2021/11/14 09:18:40;;;;;;;4.05;3.42;;;16.70;99.90;;;;;;6213456;23;20012;-87
2021/11/14 09:21:07;;;;;;;4.55;2.90;;;16.80;99.90;;;;;;6214033;23;20051;-85
2021/11/14 09:23:33;;;;;;;4.28;3.05;;;16.90;99.90;;;;;;6211631;23;20008;-83
2021/11/14 09:25:59;;;;;;;3.42;2.90;;;16.90;99.90;;;;;;6211783;23;20004;-85
2021/11/14 09:28:25;;;;;;;3.85;3.45;;;17.00;99.90;;;;;;6214203;23;20001;-87
2021/11/14 09:30:51;;;;;;;4.00;3.10;;;17.10;99.90;;;;;;6211505;23;20005;-86
2021/11/14 09:33:22;;;;;;;3.38;3.08;;;17.20;99.90;;;;;;6213205;23;19996;-84
2021/11/14 09:35:48;;;;;;;3.20;2.80;;;17.30;99.90;;;;;;6211710;23;20091;-85
2021/11/14 09:38:14;;;;;;;3.45;2.50;;;17.30;99.90;;;;;;6212469;23;20171;-85
2021/11/14 09:40:41;;;;;;;3.08;2.78;;;17.40;99.90;;;;;;6214077;23;20000;-84
2021/11/14 09:43:07;;;;;;;2.88;2.67;;;17.30;99.90;;;;;;6215542;23;20371;-85
2021/11/14 09:45:35;;;;;;;3.45;2.72;;;17.30;99.90;;;;;;6213709;23;20009;-86
2021/11/14 09:48:02;;;;;;;3.78;2.80;;;17.40;99.90;;;;;;6215544;23;20501;-86
2021/11/14 09:50:28;;;;;;;3.17;2.90;;;17.40;99.90;;;;;;6215140;23;20147;-86
2021/11/14 09:52:56;;;;;;;2.95;2.75;;;17.40;99.90;;;;;;6215264;23;20011;-81
2021/11/14 09:55:22;;;;;;;3.88;3.30;;;17.30;99.90;;;;;;6214528;23;20080;-83
2021/11/14 09:57:49;;;;;;;3.00;2.72;;;17.30;99.90;;;;;;6214366;23;20500;-83
2021/11/14 10:00:16;;;;;;;5.00;3.38;;;17.30;99.90;;;;;;6187612;23;20012;-83
2021/11/14 10:02:42;;;;;;;3.20;2.90;;;17.30;99.90;;;;;;6215587;23;20005;-84
2021/11/14 10:05:10;;;;;;;3.90;3.50;;;17.20;99.90;;;;;;6212878;23;20032;-84
2021/11/14 10:07:37;;;;;;;4.07;3.30;;;17.20;99.90;;;;;;6214884;23;20032;-84
2021/11/14 10:10:06;;;;;;;4.47;3.10;;;17.20;99.90;;;;;;6214025;23;20343;-84
2021/11/14 10:12:32;;;;;;;6.22;4.72;;;17.30;99.90;;;;;;6214624;23;20001;-84
2021/11/14 10:15:09;;;;;;;3.70;3.40;;;17.40;99.90;;;;;;6215507;23;20011;-86
2021/11/14 10:17:36;;;;;;;4.05;3.30;;;17.40;99.90;;;;;;6216829;23;20004;-87
2021/11/14 10:20:05;;;;;;;4.28;3.38;;;17.20;99.90;;;;;;6216270;23;20004;-87
2021/11/14 10:22:31;;;;;;;3.47;3.22;;;17.20;99.90;;;;;;6215644;23;20027;-83
2021/11/14 10:24:57;;;;;;;3.50;3.20;;;17.20;99.90;;;;;;6214990;23;20011;-85
2021/11/14 10:27:28;;;;;;;3.17;2.92;;;17.30;99.90;;;;;;6213052;23;20031;-83
2021/11/14 10:29:55;;;;;;;3.50;3.20;;;17.20;99.90;;;;;;6213806;23;20005;-84
2021/11/14 10:32:21;;;;;;;3.70;3.30;;;17.20;99.90;;;;;;6213026;23;20005;-83
2021/11/14 10:34:49;;;;;;;11.80;3.25;;;17.20;99.90;;;;;;6214922;23;20020;-83
2021/11/14 10:37:19;;;;;;;3.65;3.35;;;17.10;99.90;;;;;;6215105;23;20027;-83
2021/11/14 10:39:49;;;;;;;3.30;3.00;;;17.10;99.90;;;;;;6215920;23;20008;-84
2021/11/14 10:42:16;;;;;;;3.35;3.00;;;17.20;99.90;;;;;;6214557;23;19996;-82
2021/11/14 10:44:51;;;;;;;4.05;3.15;;;17.30;99.90;;;;;;6213891;23;20001;-84
2021/11/14 10:47:22;;;;;;;5.35;3.40;;;17.40;99.90;;;;;;6214475;23;20004;-82
2021/11/14 10:50:00;;;;;;;4.22;3.15;;;17.60;99.90;;;;;;6211997;23;20493;-86
2021/11/14 10:52:30;;;;;;;3.65;3.35;;;17.80;99.90;;;;;;6214082;23;20005;-82
2021/11/14 10:55:09;;;;;;;4.15;3.10;;;18.00;99.90;;;;;;6212266;23;20031;-85
2021/11/14 10:57:36;;;;;;;3.75;3.45;;;18.10;99.90;;;;;;6214077;23;19996;-82
2021/11/14 11:00:07;;;;;;;3.90;3.60;;;18.40;99.90;;;;;;6211964;23;20340;-81
2021/11/14 11:02:33;;;;;;;4.07;3.42;;;18.70;99.90;;;;;;6214431;23;20347;-81
2021/11/14 11:05:09;;;;;;;4.82;3.92;;;18.80;99.90;;;;;;6213433;23;20389;-84
2021/11/14 11:07:35;;;;;;;5.88;3.45;;;18.80;99.90;;;;;;6215221;23;20005;-82
2021/11/14 11:10:01;;;;;;;3.55;3.22;;;18.90;99.90;;;;;;6213975;23;20431;-79
2021/11/14 11:12:28;;;;;;;3.15;2.88;;;18.90;99.90;;;;;;6214267;23;20005;-84
2021/11/14 11:15:03;;;;;;;3.50;3.10;;;18.90;99.90;;;;;;6214324;23;20007;-82
2021/11/14 11:17:42;;;;;;;5.03;3.40;;;18.90;99.90;;;;;;6212588;23;20031;-82
2021/11/14 11:20:10;;;;;;;8.88;6.25;;;18.90;99.90;;;;;;6212882;23;20050;-82
2021/11/14 11:22:55;;;;;;;3.50;3.20;;;18.80;99.90;;;;;;6215068;23;19997;-87
2021/11/14 11:25:33;;;;;;;4.43;4.03;;;18.80;99.90;;;;;;6217486;23;20078;-86
2021/11/14 11:28:00;;;;;;;4.47;3.25;;;18.70;99.90;;;;;;6211240;23;20005;-83
2021/11/14 11:30:37;;;;;;;4.35;3.95;;;18.70;99.90;;;;;;6212724;23;20099;-82
2021/11/14 11:33:03;;;;;;;5.70;4.25;;;18.60;99.90;;;;;;6217010;23;20000;-83
2021/11/14 11:35:29;;;;;;;8.63;6.07;;;18.50;99.90;;;;;;6213676;23;20001;-81
2021/11/14 11:37:55;;;;;;;6.40;4.75;;;18.50;99.90;;;;;;6215065;23;20012;-85
2021/11/14 11:40:21;;;;;;;3.60;3.17;;;18.50;99.90;;;;;;6213560;23;20004;-82
2021/11/14 11:42:46;;;;;;;4.55;3.10;;;18.50;99.90;;;;;;6210956;23;20070;-79
2021/11/14 11:45:16;;;;;;;5.97;3.22;;;18.60;99.90;;;;;;6213614;22;20016;-84
2021/11/14 11:47:45;;;;;;;4.25;3.28;;;18.60;99.40;;;;;;6212775;23;20009;-83
2021/11/14 11:50:12;;;;;;;4.30;3.83;;;18.70;99.70;;;;;;6213636;23;20016;-82
2021/11/14 11:52:41;;;;;;;5.57;4.00;;;18.70;99.90;;;;;;6216042;23;20004;-84
2021/11/14 11:55:20;;;;;;;4.80;4.30;;;18.70;99.90;;;;;;6222045;23;20107;-81
2021/11/14 11:57:48;;;;;;;7.45;6.65;;;18.50;99.50;;;;;;6216729;23;20088;-87
2021/11/14 12:00:16;;;;;;;5.72;5.20;;;18.40;99.90;;;;;;6216354;23;20000;-80
2021/11/14 12:02:42;;;;;;;5.03;4.55;;;18.20;99.90;;;;;;6213750;23;20004;-80
2021/11/14 12:05:20;;;;;;;5.60;3.72;;;18.10;99.90;;;;;;6213401;23;19997;-81
2021/11/14 12:07:50;;;;;;;3.53;3.22;;;18.10;99.90;;;;;;6213851;23;20066;-80
2021/11/14 12:10:24;;;;;;;4.18;3.75;;;17.80;99.90;;;;;;6213213;23;20079;-84
2021/11/14 12:12:54;;;;;;;9.88;6.15;;;17.60;99.90;;;;;;6213214;23;20000;-85
2021/11/14 12:15:25;;;;;;;5.93;5.00;;;17.50;99.90;;;;;;6211903;23;20088;-83
2021/11/14 12:18:06;;;;;;;5.03;4.45;;;17.30;99.90;;;;;;6211969;23;20005;-81
2021/11/14 12:20:37;;;;;;;4.00;3.55;;;17.20;99.90;;;;;;6213527;23;20008;-80
2021/11/14 12:23:37;;;;;;;4.78;3.92;;;17.00;99.90;;;;;;6212610;23;20521;-82
2021/11/14 12:26:10;;;;;;;3.25;3.05;;;16.80;99.90;;;;;;6213489;23;20004;-81
2021/11/14 12:28:40;;;;;;;3.15;2.95;;;16.60;99.90;;;;;;6214840;23;20071;-84
2021/11/14 12:31:23;;;;;;;5.32;3.03;;;16.40;99.90;;;;;;6213337;23;20331;-83
2021/11/14 12:33:54;;;;;;;3.40;3.13;;;16.30;99.90;;;;;;6215160;23;20000;-84
2021/11/14 12:36:48;;;;;;;5.32;3.38;;;16.10;99.90;;;;;;6213590;23;20088;-84
2021/11/14 12:39:18;;;;;;;3.88;3.40;;;16.10;99.90;;;;;;6214626;23;20028;-85
2021/11/14 12:41:50;;;;;;;3.75;3.40;;;16.10;99.90;;;;;;6214012;23;20004;-85
2021/11/14 12:44:41;;;;;;;3.80;3.45;;;16.00;99.90;;;;;;6216053;23;20028;-85
2021/11/14 12:47:22;;;;;;;3.15;2.92;;;15.90;99.90;;;;;;6214514;23;19997;-83
2021/11/14 12:49:53;;;;;;;3.67;3.17;;;15.80;99.90;;;;;;6215488;23;20511;-84
2021/11/14 12:52:30;;;;;;;4.25;3.78;;;15.70;99.90;;;;;;6215554;23;20005;-86
2021/11/14 12:54:58;;;;;;;3.50;3.20;;;15.70;99.90;;;;;;6215932;23;20005;-85